sensor_id;sensor_type;location;lat;lon;timestamp;pressure;altitude;pressure_sealevel;temperature;humidity
31717;BME280;18301;51.076;17.046;2023-05-23T00:02:10;99924.63;;;16.47;60.06
31717;BME280;18301;51.076;17.046;2023-05-23T00:07:14;99914.38;;;16.41;60.34
31717;BME280;18301;51.076;17.046;2023-05-23T00:12:16;99906.53;;;16.38;60.29
31717;BME280;18301;51.076;17.046;2023-05-23T00:17:18;99906.19;;;16.32;60.63
31717;BME280;18301;51.076;17.046;2023-05-23T00:22:20;99907.84;;;16.25;60.67
31717;BME280;18301;51.076;17.046;2023-05-23T00:27:22;99904.69;;;16.12;61.96
31717;BME280;18301;51.076;17.046;2023-05-23T00:32:24;99906.19;;;16.06;61.17
31717;BME280;18301;51.076;17.046;2023-05-23T00:37:25;99901.25;;;16.02;61.34
31717;BME280;18301;51.076;17.046;2023-05-23T00:42:27;99889.97;;;15.97;61.34
31717;BME280;18301;51.076;17.046;2023-05-23T00:47:28;99899.50;;;15.93;61.70
31717;BME280;18301;51.076;17.046;2023-05-23T00:52:30;99889.91;;;15.88;62.03
31717;BME280;18301;51.076;17.046;2023-05-23T00:57:31;99892.94;;;15.85;61.97
31717;BME280;18301;51.076;17.046;2023-05-23T01:02:46;99883.59;;;15.80;62.01
31717;BME280;18301;51.076;17.046;2023-05-23T01:07:49;99883.59;;;15.80;62.30
31717;BME280;18301;51.076;17.046;2023-05-23T01:18:06;99881.19;;;15.59;62.85
31717;BME280;18301;51.076;17.046;2023-05-23T01:28:20;99888.59;;;15.49;62.74
31717;BME280;18301;51.076;17.046;2023-05-23T01:33:24;99880.50;;;15.39;63.36
31717;BME280;18301;51.076;17.046;2023-05-23T01:38:26;99885.81;;;15.40;63.60
31717;BME280;18301;51.076;17.046;2023-05-23T01:43:27;99882.38;;;15.38;63.70
31717;BME280;18301;51.076;17.046;2023-05-23T01:48:29;99877.97;;;15.37;64.00
31717;BME280;18301;51.076;17.046;2023-05-23T01:53:33;99867.72;;;15.31;64.06
31717;BME280;18301;51.076;17.046;2023-05-23T01:58:35;99863.53;;;15.19;65.12
31717;BME280;18301;51.076;17.046;2023-05-23T02:03:37;99865.22;;;15.20;64.54
31717;BME280;18301;51.076;17.046;2023-05-23T02:08:38;99850.78;;;15.19;64.80
31717;BME280;18301;51.076;17.046;2023-05-23T02:13:40;99849.75;;;15.20;64.67
31717;BME280;18301;51.076;17.046;2023-05-23T02:18:41;99853.28;;;15.13;64.58
31717;BME280;18301;51.076;17.046;2023-05-23T02:23:46;99834.16;;;15.05;65.13
31717;BME280;18301;51.076;17.046;2023-05-23T02:28:47;99833.19;;;15.06;64.77
31717;BME280;18301;51.076;17.046;2023-05-23T02:33:49;99825.97;;;14.96;65.33
31717;BME280;18301;51.076;17.046;2023-05-23T02:38:50;99822.94;;;14.82;65.88
31717;BME280;18301;51.076;17.046;2023-05-23T02:43:52;99833.00;;;14.71;66.07
31717;BME280;18301;51.076;17.046;2023-05-23T02:48:54;99824.72;;;14.73;65.88
31717;BME280;18301;51.076;17.046;2023-05-23T02:53:55;99826.41;;;14.74;65.70
31717;BME280;18301;51.076;17.046;2023-05-23T02:58:57;99824.72;;;14.73;66.32
31717;BME280;18301;51.076;17.046;2023-05-23T03:03:58;99813.31;;;14.69;66.15
31717;BME280;18301;51.076;17.046;2023-05-23T03:09:00;99810.34;;;14.63;66.39
31717;BME280;18301;51.076;17.046;2023-05-23T03:14:01;99801.50;;;14.61;66.48
31717;BME280;18301;51.076;17.046;2023-05-23T03:19:03;99791.97;;;14.57;66.63
31717;BME280;18301;51.076;17.046;2023-05-23T03:24:05;99802.34;;;14.61;66.57
31717;BME280;18301;51.076;17.046;2023-05-23T03:29:07;99794.38;;;14.60;66.68
31717;BME280;18301;51.076;17.046;2023-05-23T03:34:11;99796.78;;;14.63;66.76
31717;BME280;18301;51.076;17.046;2023-05-23T03:39:13;99790.09;;;14.75;66.41
31717;BME280;18301;51.076;17.046;2023-05-23T03:44:14;99792.13;;;14.73;67.00
31717;BME280;18301;51.076;17.046;2023-05-23T03:49:16;99790.88;;;14.85;66.66
31717;BME280;18301;51.076;17.046;2023-05-23T03:54:18;99792.03;;;14.83;67.04
31717;BME280;18301;51.076;17.046;2023-05-23T03:59:19;99788.25;;;14.93;66.70
31717;BME280;18301;51.076;17.046;2023-05-23T04:04:21;99801.88;;;15.02;66.77
31717;BME280;18301;51.076;17.046;2023-05-23T04:09:23;99794.13;;;15.07;67.25
31717;BME280;18301;51.076;17.046;2023-05-23T04:14:24;99796.13;;;15.05;67.48
31717;BME280;18301;51.076;17.046;2023-05-23T04:19:26;99794.25;;;15.05;66.80
31717;BME280;18301;51.076;17.046;2023-05-23T04:24:28;99785.16;;;15.14;67.05
31717;BME280;18301;51.076;17.046;2023-05-23T04:29:29;99787.41;;;15.19;66.90
31717;BME280;18301;51.076;17.046;2023-05-23T04:34:32;99785.97;;;15.33;66.85
31717;BME280;18301;51.076;17.046;2023-05-23T04:39:38;99783.41;;;15.49;67.10
31717;BME280;18301;51.076;17.046;2023-05-23T04:44:39;99774.09;;;15.60;67.21
31717;BME280;18301;51.076;17.046;2023-05-23T04:49:42;99762.50;;;15.76;66.62
31717;BME280;18301;51.076;17.046;2023-05-23T04:54:45;99761.44;;;16.03;67.04
31717;BME280;18301;51.076;17.046;2023-05-23T04:59:49;99742.13;;;16.30;66.57
31717;BME280;18301;51.076;17.046;2023-05-23T05:04:50;99747.31;;;16.66;64.96
31717;BME280;18301;51.076;17.046;2023-05-23T05:09:52;99753.47;;;16.93;65.25
31717;BME280;18301;51.076;17.046;2023-05-23T05:14:53;99749.72;;;17.18;63.75
31717;BME280;18301;51.076;17.046;2023-05-23T05:19:55;99745.22;;;17.58;62.69
31717;BME280;18301;51.076;17.046;2023-05-23T05:24:57;99742.47;;;17.66;63.29
31717;BME280;18301;51.076;17.046;2023-05-23T05:29:58;99742.91;;;17.94;61.83
31717;BME280;18301;51.076;17.046;2023-05-23T05:35:05;99745.81;;;18.01;62.45
31717;BME280;18301;51.076;17.046;2023-05-23T05:40:08;99740.75;;;18.21;61.76
31717;BME280;18301;51.076;17.046;2023-05-23T05:45:10;99731.66;;;18.29;61.40
31717;BME280;18301;51.076;17.046;2023-05-23T05:50:11;99731.84;;;18.50;60.50
31717;BME280;18301;51.076;17.046;2023-05-23T05:55:13;99732.22;;;18.47;61.09
31717;BME280;18301;51.076;17.046;2023-05-23T06:00:15;99734.66;;;18.65;60.19
31717;BME280;18301;51.076;17.046;2023-05-23T06:05:19;99738.06;;;18.90;60.14
31717;BME280;18301;51.076;17.046;2023-05-23T06:10:20;99735.34;;;19.13;59.06
31717;BME280;18301;51.076;17.046;2023-05-23T06:15:22;99737.25;;;19.42;59.58
31717;BME280;18301;51.076;17.046;2023-05-23T06:20:24;99737.00;;;19.37;60.18
31717;BME280;18301;51.076;17.046;2023-05-23T06:25:26;99727.06;;;19.36;58.59
31717;BME280;18301;51.076;17.046;2023-05-23T06:30:27;99731.16;;;19.40;59.27
31717;BME280;18301;51.076;17.046;2023-05-23T06:35:30;99743.94;;;19.25;59.47
31717;BME280;18301;51.076;17.046;2023-05-23T06:40:31;99739.50;;;19.24;58.83
31717;BME280;18301;51.076;17.046;2023-05-23T06:45:33;99738.69;;;19.38;59.64
31717;BME280;18301;51.076;17.046;2023-05-23T06:50:36;99725.16;;;19.89;59.18
31717;BME280;18301;51.076;17.046;2023-05-23T06:55:37;99728.53;;;20.42;56.64
31717;BME280;18301;51.076;17.046;2023-05-23T07:00:39;99715.28;;;20.61;56.43
31717;BME280;18301;51.076;17.046;2023-05-23T07:05:40;99716.31;;;20.60;56.79
31717;BME280;18301;51.076;17.046;2023-05-23T07:10:42;99706.22;;;20.60;56.48
31717;BME280;18301;51.076;17.046;2023-05-23T07:15:44;99705.22;;;20.89;56.38
31717;BME280;18301;51.076;17.046;2023-05-23T07:20:45;99705.25;;;21.46;54.34
31717;BME280;18301;51.076;17.046;2023-05-23T07:25:47;99693.47;;;21.87;53.78
31717;BME280;18301;51.076;17.046;2023-05-23T07:31:02;99692.56;;;22.21;52.83
31717;BME280;18301;51.076;17.046;2023-05-23T07:36:03;99675.97;;;22.01;53.13
31717;BME280;18301;51.076;17.046;2023-05-23T07:41:05;99671.19;;;21.68;54.27
31717;BME280;18301;51.076;17.046;2023-05-23T07:46:12;99670.28;;;21.61;54.18
31717;BME280;18301;51.076;17.046;2023-05-23T07:51:13;99675.31;;;21.51;54.68
31717;BME280;18301;51.076;17.046;2023-05-23T07:56:15;99672.16;;;21.54;54.71
31717;BME280;18301;51.076;17.046;2023-05-23T08:01:17;99690.53;;;21.53;53.84
31717;BME280;18301;51.076;17.046;2023-05-23T08:06:19;99692.97;;;21.42;54.52
31717;BME280;18301;51.076;17.046;2023-05-23T08:11:20;99694.28;;;21.46;54.78
31717;BME280;18301;51.076;17.046;2023-05-23T08:16:21;99683.38;;;21.59;54.49
31717;BME280;18301;51.076;17.046;2023-05-23T08:21:23;99702.94;;;21.77;54.37
31717;BME280;18301;51.076;17.046;2023-05-23T08:26:25;99710.63;;;21.32;53.73
31717;BME280;18301;51.076;17.046;2023-05-23T08:31:28;99709.59;;;21.12;55.11
31717;BME280;18301;51.076;17.046;2023-05-23T08:36:30;99710.78;;;21.03;54.55
31717;BME280;18301;51.076;17.046;2023-05-23T08:41:38;99705.88;;;20.91;55.28
31717;BME280;18301;51.076;17.046;2023-05-23T08:46:44;99703.53;;;20.88;55.75
31717;BME280;18301;51.076;17.046;2023-05-23T08:51:49;99715.34;;;21.17;56.04
31717;BME280;18301;51.076;17.046;2023-05-23T08:56:52;99720.84;;;21.38;56.25
31717;BME280;18301;51.076;17.046;2023-05-23T09:01:55;99719.78;;;21.18;58.18
31717;BME280;18301;51.076;17.046;2023-05-23T09:06:57;99721.78;;;21.03;57.46
31717;BME280;18301;51.076;17.046;2023-05-23T09:11:59;99720.47;;;20.99;59.25
31717;BME280;18301;51.076;17.046;2023-05-23T09:17:01;99716.00;;;20.91;59.64
31717;BME280;18301;51.076;17.046;2023-05-23T09:22:05;99716.81;;;20.49;66.26
31717;BME280;18301;51.076;17.046;2023-05-23T09:27:07;99717.38;;;20.08;67.01
31717;BME280;18301;51.076;17.046;2023-05-23T09:32:15;99729.88;;;19.95;65.28
31717;BME280;18301;51.076;17.046;2023-05-23T09:37:17;99725.41;;;19.94;65.78
31717;BME280;18301;51.076;17.046;2023-05-23T09:42:21;99730.25;;;19.92;69.41
31717;BME280;18301;51.076;17.046;2023-05-23T09:47:25;99738.16;;;19.87;70.51
31717;BME280;18301;51.076;17.046;2023-05-23T09:52:36;99737.25;;;19.80;71.26
31717;BME280;18301;51.076;17.046;2023-05-23T09:57:42;99740.31;;;19.62;74.22
31717;BME280;18301;51.076;17.046;2023-05-23T10:03:10;99728.47;;;19.32;76.19
31717;BME280;18301;51.076;17.046;2023-05-23T10:08:22;99730.72;;;19.14;79.97
31717;BME280;18301;51.076;17.046;2023-05-23T10:13:27;99735.22;;;19.06;78.08
31717;BME280;18301;51.076;17.046;2023-05-23T10:18:33;99727.28;;;19.12;80.92
31717;BME280;18301;51.076;17.046;2023-05-23T10:23:37;99737.00;;;19.37;79.25
31717;BME280;18301;51.076;17.046;2023-05-23T10:28:40;99739.91;;;19.50;78.30
31717;BME280;18301;51.076;17.046;2023-05-23T10:33:48;99732.00;;;19.41;76.86
31717;BME280;18301;51.076;17.046;2023-05-23T10:39:12;99731.66;;;19.73;79.08
31717;BME280;18301;51.076;17.046;2023-05-23T10:44:25;99729.66;;;20.12;79.01
31717;BME280;18301;51.076;17.046;2023-05-23T10:49:38;99724.75;;;20.43;73.39
31717;BME280;18301;51.076;17.046;2023-05-23T10:59:44;99726.44;;;21.30;71.23
31717;BME280;18301;51.076;17.046;2023-05-23T11:05:23;99739.31;;;21.30;69.42
31717;BME280;18301;51.076;17.046;2023-05-23T11:10:27;99715.94;;;21.62;70.01
31717;BME280;18301;51.076;17.046;2023-05-23T11:15:40;99721.13;;;21.85;67.73
31717;BME280;18301;51.076;17.046;2023-05-23T11:20:43;99715.31;;;22.01;68.84
31717;BME280;18301;51.076;17.046;2023-05-23T11:25:50;99709.91;;;22.21;66.30
31717;BME280;18301;51.076;17.046;2023-05-23T11:30:52;99713.66;;;22.14;66.38
31717;BME280;18301;51.076;17.046;2023-05-23T11:35:54;99705.47;;;22.20;66.20
31717;BME280;18301;51.076;17.046;2023-05-23T11:40:55;99694.97;;;22.44;66.30
31717;BME280;18301;51.076;17.046;2023-05-23T11:45:57;99703.25;;;22.64;65.76
31717;BME280;18301;51.076;17.046;2023-05-23T11:51:07;99693.34;;;22.83;65.65
31717;BME280;18301;51.076;17.046;2023-05-23T11:56:09;99698.41;;;22.72;61.48
31717;BME280;18301;51.076;17.046;2023-05-23T12:01:11;99699.28;;;23.00;63.68
31717;BME280;18301;51.076;17.046;2023-05-23T12:06:14;99693.16;;;22.91;62.01
31717;BME280;18301;51.076;17.046;2023-05-23T12:11:16;99702.06;;;23.13;62.68
31717;BME280;18301;51.076;17.046;2023-05-23T12:16:19;99710.94;;;23.15;60.83
31717;BME280;18301;51.076;17.046;2023-05-23T12:21:24;99701.41;;;22.91;61.50
31717;BME280;18301;51.076;17.046;2023-05-23T12:26:26;99700.28;;;22.72;62.65
31717;BME280;18301;51.076;17.046;2023-05-23T12:31:27;99699.03;;;22.81;62.53
31717;BME280;18301;51.076;17.046;2023-05-23T12:36:29;99704.94;;;22.65;63.66
31717;BME280;18301;51.076;17.046;2023-05-23T12:41:32;99699.44;;;22.71;63.03
31717;BME280;18301;51.076;17.046;2023-05-23T12:46:34;99690.59;;;22.83;65.62
31717;BME280;18301;51.076;17.046;2023-05-23T12:51:36;99693.75;;;22.93;63.63
31717;BME280;18301;51.076;17.046;2023-05-23T12:56:38;99693.34;;;22.69;62.57
31717;BME280;18301;51.076;17.046;2023-05-23T13:01:40;99688.25;;;22.80;62.78
31717;BME280;18301;51.076;17.046;2023-05-23T13:06:42;99684.22;;;22.69;62.52
31717;BME280;18301;51.076;17.046;2023-05-23T13:11:43;99677.03;;;22.68;62.19
31717;BME280;18301;51.076;17.046;2023-05-23T13:16:45;99671.75;;;22.73;63.91
31717;BME280;18301;51.076;17.046;2023-05-23T13:21:46;99669.19;;;22.65;64.12
31717;BME280;18301;51.076;17.046;2023-05-23T13:26:50;99659.47;;;22.62;64.06
31717;BME280;18301;51.076;17.046;2023-05-23T13:31:51;99647.22;;;23.05;62.78
31717;BME280;18301;51.076;17.046;2023-05-23T13:36:54;99658.41;;;23.43;60.30
31717;BME280;18301;51.076;17.046;2023-05-23T13:41:55;99664.34;;;23.40;60.35
31717;BME280;18301;51.076;17.046;2023-05-23T13:47:09;99656.47;;;23.50;61.38
31717;BME280;18301;51.076;17.046;2023-05-23T13:52:13;99657.06;;;23.65;60.31
31717;BME280;18301;51.076;17.046;2023-05-23T13:57:15;99664.50;;;23.58;59.72
31717;BME280;18301;51.076;17.046;2023-05-23T14:02:17;99658.75;;;23.73;58.57
31717;BME280;18301;51.076;17.046;2023-05-23T14:07:18;99671.47;;;23.81;58.00
31717;BME280;18301;51.076;17.046;2023-05-23T14:12:20;99672.31;;;23.81;57.27
31717;BME280;18301;51.076;17.046;2023-05-23T14:17:21;99672.97;;;23.70;57.63
31717;BME280;18301;51.076;17.046;2023-05-23T14:22:23;99677.84;;;23.55;57.44
31717;BME280;18301;51.076;17.046;2023-05-23T14:27:25;99679.19;;;23.26;58.08
31717;BME280;18301;51.076;17.046;2023-05-23T14:32:27;99679.81;;;23.14;58.39
31717;BME280;18301;51.076;17.046;2023-05-23T14:37:28;99677.50;;;23.25;59.06
31717;BME280;18301;51.076;17.046;2023-05-23T14:42:30;99683.41;;;23.35;58.38
31717;BME280;18301;51.076;17.046;2023-05-23T14:47:31;99685.09;;;23.36;58.61
31717;BME280;18301;51.076;17.046;2023-05-23T14:52:33;99691.47;;;23.16;58.40
31717;BME280;18301;51.076;17.046;2023-05-23T14:57:34;99682.16;;;23.04;58.27
31717;BME280;18301;51.076;17.046;2023-05-23T15:02:36;99682.56;;;22.88;58.71
31717;BME280;18301;51.076;17.046;2023-05-23T15:07:38;99689.31;;;22.85;59.25
31717;BME280;18301;51.076;17.046;2023-05-23T15:12:39;99685.94;;;22.90;61.55
31717;BME280;18301;51.076;17.046;2023-05-23T15:17:41;99677.44;;;22.71;61.31
31717;BME280;18301;51.076;17.046;2023-05-23T15:22:42;99680.38;;;22.50;61.45
31717;BME280;18301;51.076;17.046;2023-05-23T15:27:44;99676.59;;;22.71;61.45
31717;BME280;18301;51.076;17.046;2023-05-23T15:32:46;99678.31;;;22.85;61.75
31717;BME280;18301;51.076;17.046;2023-05-23T15:37:48;99676.63;;;22.91;61.28
31717;BME280;18301;51.076;17.046;2023-05-23T15:42:49;99678.53;;;22.77;60.98
31717;BME280;18301;51.076;17.046;2023-05-23T15:47:51;99674.94;;;22.77;61.30
31717;BME280;18301;51.076;17.046;2023-05-23T15:52:53;99672.09;;;22.37;61.36
31717;BME280;18301;51.076;17.046;2023-05-23T15:57:54;99665.09;;;22.21;61.58
31717;BME280;18301;51.076;17.046;2023-05-23T16:02:55;99674.72;;;22.10;61.24
31717;BME280;18301;51.076;17.046;2023-05-23T16:07:57;99669.63;;;22.00;61.32
31717;BME280;18301;51.076;17.046;2023-05-23T16:12:58;99648.06;;;21.97;61.65
31717;BME280;18301;51.076;17.046;2023-05-23T16:18:01;99642.16;;;22.00;61.71
31717;BME280;18301;51.076;17.046;2023-05-23T16:23:03;99651.44;;;21.86;61.91
31717;BME280;18301;51.076;17.046;2023-05-23T16:28:05;99646.38;;;21.90;61.80
31717;BME280;18301;51.076;17.046;2023-05-23T16:33:06;99655.41;;;21.83;62.04
31717;BME280;18301;51.076;17.046;2023-05-23T16:38:08;99654.78;;;21.81;61.84
31717;BME280;18301;51.076;17.046;2023-05-23T16:43:11;99653.50;;;21.77;62.45
31717;BME280;18301;51.076;17.046;2023-05-23T16:48:12;99669.47;;;21.67;62.79
31717;BME280;18301;51.076;17.046;2023-05-23T16:53:14;99666.97;;;21.72;62.84
31717;BME280;18301;51.076;17.046;2023-05-23T16:58:15;99658.13;;;21.77;63.78
31717;BME280;18301;51.076;17.046;2023-05-23T17:03:21;99666.63;;;21.89;63.05
31717;BME280;18301;51.076;17.046;2023-05-23T17:08:23;99673.13;;;21.74;63.82
31717;BME280;18301;51.076;17.046;2023-05-23T17:13:24;99677.97;;;21.72;65.05
31717;BME280;18301;51.076;17.046;2023-05-23T17:18:26;99693.19;;;21.75;64.39
31717;BME280;18301;51.076;17.046;2023-05-23T17:23:27;99695.22;;;21.59;66.10
31717;BME280;18301;51.076;17.046;2023-05-23T17:28:29;99697.66;;;21.48;65.97
31717;BME280;18301;51.076;17.046;2023-05-23T17:33:30;99704.38;;;21.38;67.15
31717;BME280;18301;51.076;17.046;2023-05-23T17:38:32;99697.97;;;21.31;70.87
31717;BME280;18301;51.076;17.046;2023-05-23T17:43:33;99701.50;;;21.25;70.95
31717;BME280;18301;51.076;17.046;2023-05-23T17:48:35;99713.81;;;21.08;71.30
31717;BME280;18301;51.076;17.046;2023-05-23T17:53:48;99715.09;;;21.12;70.56
31717;BME280;18301;51.076;17.046;2023-05-23T17:58:53;99724.34;;;20.61;74.01
31717;BME280;18301;51.076;17.046;2023-05-23T18:03:55;99726.25;;;20.46;74.14
31717;BME280;18301;51.076;17.046;2023-05-23T18:08:56;99728.88;;;20.18;75.97
31717;BME280;18301;51.076;17.046;2023-05-23T18:13:58;99723.13;;;20.13;77.18
31717;BME280;18301;51.076;17.046;2023-05-23T18:18:59;99734.66;;;20.08;75.18
31717;BME280;18301;51.076;17.046;2023-05-23T18:24:01;99747.56;;;20.29;74.30
31717;BME280;18301;51.076;17.046;2023-05-23T18:29:04;99751.84;;;20.17;75.04
31717;BME280;18301;51.076;17.046;2023-05-23T18:34:05;99763.34;;;20.27;74.79
31717;BME280;18301;51.076;17.046;2023-05-23T18:39:08;99774.44;;;19.89;75.35
31717;BME280;18301;51.076;17.046;2023-05-23T18:44:10;99780.94;;;19.88;77.35
31717;BME280;18301;51.076;17.046;2023-05-23T18:49:11;99788.44;;;19.19;82.52
31717;BME280;18301;51.076;17.046;2023-05-23T18:54:13;99799.81;;;19.30;79.78
31717;BME280;18301;51.076;17.046;2023-05-23T18:59:14;99795.56;;;19.28;79.82
31717;BME280;18301;51.076;17.046;2023-05-23T19:04:17;99813.97;;;18.88;80.71
31717;BME280;18301;51.076;17.046;2023-05-23T19:09:18;99812.81;;;19.05;79.91
31717;BME280;18301;51.076;17.046;2023-05-23T19:14:20;99816.53;;;18.90;80.62
31717;BME280;18301;51.076;17.046;2023-05-23T19:19:22;99820.78;;;18.92;79.39
31717;BME280;18301;51.076;17.046;2023-05-23T19:24:23;99819.50;;;18.72;81.16
31717;BME280;18301;51.076;17.046;2023-05-23T19:29:25;99821.25;;;18.73;80.93
31717;BME280;18301;51.076;17.046;2023-05-23T19:34:27;99829.03;;;18.84;80.19
31717;BME280;18301;51.076;17.046;2023-05-23T19:39:28;99835.25;;;18.70;80.85
31717;BME280;18301;51.076;17.046;2023-05-23T19:44:30;99839.06;;;18.60;80.87
31717;BME280;18301;51.076;17.046;2023-05-23T19:49:31;99837.78;;;18.79;79.75
31717;BME280;18301;51.076;17.046;2023-05-23T19:54:33;99851.41;;;18.88;79.52
31717;BME280;18301;51.076;17.046;2023-05-23T19:59:35;99829.75;;;18.78;79.97
31717;BME280;18301;51.076;17.046;2023-05-23T20:04:36;99846.16;;;18.78;79.81
31717;BME280;18301;51.076;17.046;2023-05-23T20:09:37;99839.41;;;18.57;80.86
31717;BME280;18301;51.076;17.046;2023-05-23T20:14:39;99860.06;;;18.12;84.64
31717;BME280;18301;51.076;17.046;2023-05-23T20:19:41;99864.34;;;18.15;84.02
31717;BME280;18301;51.076;17.046;2023-05-23T20:24:42;99864.81;;;18.27;83.72
31717;BME280;18301;51.076;17.046;2023-05-23T20:29:44;99867.75;;;18.17;84.83
31717;BME280;18301;51.076;17.046;2023-05-23T20:34:45;99868.25;;;18.12;84.71
31717;BME280;18301;51.076;17.046;2023-05-23T20:39:47;99880.84;;;18.30;86.25
31717;BME280;18301;51.076;17.046;2023-05-23T20:44:48;99881.84;;;18.37;84.96
31717;BME280;18301;51.076;17.046;2023-05-23T20:49:50;99890.09;;;18.29;85.31
31717;BME280;18301;51.076;17.046;2023-05-23T20:54:51;99890.75;;;18.31;85.56
31717;BME280;18301;51.076;17.046;2023-05-23T20:59:55;99896.06;;;18.16;87.43
31717;BME280;18301;51.076;17.046;2023-05-23T21:04:56;99897.59;;;18.27;86.01
31717;BME280;18301;51.076;17.046;2023-05-23T21:09:58;99901.56;;;18.08;87.56
31717;BME280;18301;51.076;17.046;2023-05-23T21:14:59;99904.81;;;18.03;87.82
31717;BME280;18301;51.076;17.046;2023-05-23T21:20:01;99905.88;;;17.86;88.73
31717;BME280;18301;51.076;17.046;2023-05-23T21:25:03;99906.19;;;17.66;93.32
31717;BME280;18301;51.076;17.046;2023-05-23T21:30:05;99896.81;;;17.69;90.27
31717;BME280;18301;51.076;17.046;2023-05-23T21:35:07;99904.00;;;17.78;89.91
31717;BME280;18301;51.076;17.046;2023-05-23T21:40:09;99916.41;;;17.72;90.97
31717;BME280;18301;51.076;17.046;2023-05-23T21:45:10;99924.28;;;17.67;91.37
31717;BME280;18301;51.076;17.046;2023-05-23T21:50:12;99922.56;;;17.66;91.31
31717;BME280;18301;51.076;17.046;2023-05-23T21:55:13;99926.31;;;17.49;91.83
31717;BME280;18301;51.076;17.046;2023-05-23T22:00:15;99925.44;;;17.48;92.30
31717;BME280;18301;51.076;17.046;2023-05-23T22:05:19;99930.38;;;17.45;93.30
31717;BME280;18301;51.076;17.046;2023-05-23T22:10:20;99936.19;;;17.34;95.11
31717;BME280;18301;51.076;17.046;2023-05-23T22:15:22;99938.91;;;17.50;94.23
31717;BME280;18301;51.076;17.046;2023-05-23T22:20:24;99942.00;;;17.63;94.05
31717;BME280;18301;51.076;17.046;2023-05-23T22:25:25;99946.06;;;17.51;94.27
31717;BME280;18301;51.076;17.046;2023-05-23T22:30:27;99943.69;;;17.40;96.89
31717;BME280;18301;51.076;17.046;2023-05-23T22:35:29;99966.03;;;17.43;96.15
31717;BME280;18301;51.076;17.046;2023-05-23T22:40:31;99948.81;;;17.43;96.30
31717;BME280;18301;51.076;17.046;2023-05-23T22:45:33;99957.31;;;17.48;94.22
31717;BME280;18301;51.076;17.046;2023-05-23T22:50:40;99948.66;;;17.69;91.31
31717;BME280;18301;51.076;17.046;2023-05-23T22:55:42;99944.38;;;17.50;91.86
31717;BME280;18301;51.076;17.046;2023-05-23T23:00:44;99948.44;;;17.30;92.33
31717;BME280;18301;51.076;17.046;2023-05-23T23:05:45;99950.81;;;17.24;92.17
31717;BME280;18301;51.076;17.046;2023-05-23T23:10:47;99953.84;;;17.13;92.18
31717;BME280;18301;51.076;17.046;2023-05-23T23:15:49;99951.19;;;17.38;90.07
31717;BME280;18301;51.076;17.046;2023-05-23T23:20:51;99955.56;;;17.14;91.63
31717;BME280;18301;51.076;17.046;2023-05-23T23:25:52;99963.72;;;17.06;92.70
31717;BME280;18301;51.076;17.046;2023-05-23T23:30:53;99966.75;;;16.95;92.89
31717;BME280;18301;51.076;17.046;2023-05-23T23:35:55;99964.88;;;16.87;92.53
31717;BME280;18301;51.076;17.046;2023-05-23T23:40:57;99951.06;;;16.89;92.48
31717;BME280;18301;51.076;17.046;2023-05-23T23:45:59;99958.09;;;16.99;92.14
31717;BME280;18301;51.076;17.046;2023-05-23T23:51:01;99965.38;;;16.99;90.73
31717;BME280;18301;51.076;17.046;2023-05-23T23:56:02;99974.19;;;16.24;95.67
